This is the latest recevied weather packets stored in our database for station/object N7UV-WX. If no packets are shown the sender has not sent any weather packets the latest 10 day(s).
| Time | Temp. | Humidity | Pressure | Rain* | Wind** | Luminosity | Snow |
|---|---|---|---|---|---|---|---|
| 1777148139 | 24.44° C | 21% | 1007.8 hPa | 0 mm | - | 561 W/m² | - |
| 1777146919 | 24.44° C | 23% | 1007.8 hPa | 0 mm | - | 424 W/m² | - |
| 1777146319 | 24.44° C | 24% | 1007.7 hPa | 0 mm | - | 682 W/m² | - |
| 1777142739 | 23.33° C | 25% | 1008.2 hPa | 0 mm | - | 364 W/m² | - |
| 1777140319 | 23.89° C | 24% | 1008.5 hPa | 0 mm | - | 464 W/m² | - |
| 1777139159 | 23.89° C | 24% | 1008.4 hPa | 0 mm | - | 420 W/m² | - |
| 1777138520 | 23.89° C | 24% | 1008.4 hPa | 0 mm | - | 381 W/m² | - |
| 1777137334 | 23.33° C | 24% | 1008.3 hPa | 0 mm | - | 399 W/m² | - |
| 1777136719 | 23.33° C | 25% | 1008.2 hPa | 0 mm | - | 338 W/m² | - |
| 1777136133 | 23.33° C | 25% | 1008.1 hPa | 0 mm | - | 325 W/m² | - |
| 1777127143 | 21.11° C | 25% | 1007.7 hPa | 0 mm | - | 128 W/m² | - |
| 1777115120 | 21.11° C | 24% | 1006.6 hPa | 0 mm | - | 0 W/m² | - |
| 1777106119 | 22.78° C | 19% | 1005.9 hPa | 0 mm | - | 0 W/m² | - |
| 1777104319 | 23.33° C | 21% | 1005.8 hPa | 0 mm | - | 0 W/m² | - |
| 1777103119 | 23.89° C | 21% | 1005.8 hPa | 0 mm | - | 0 W/m² | - |
| 1777102519 | 23.89° C | 21% | 1006 hPa | 0 mm | - | 0 W/m² | - |
| 1777101919 | 23.89° C | 21% | 1006 hPa | 0 mm | - | 0 W/m² | - |
| 1777099518 | 24.44° C | 22% | 1005.9 hPa | 0 mm | - | 0 W/m² | - |
| 1777098319 | 24.44° C | 22% | 1005.8 hPa | 0 mm | - | 0 W/m² | - |
| 1777096519 | 25° C | 22% | 1005.8 hPa | 0 mm | - | 0 W/m² | - |
| 1777092921 | 25.56° C | 18% | 1005.8 hPa | 0 mm | - | 0 W/m² | - |
| 1777089919 | 26.67° C | 14% | 1005.7 hPa | 0 mm | - | 0 W/m² | - |
| 1777089320 | 26.67° C | 14% | 1005.5 hPa | 0 mm | - | 0 W/m² | - |
| 1777077320 | 29.44° C | 12% | 1004.7 hPa | 0 mm | - | 322 W/m² | - |
* Rain latest hour (hover to see other rain measurements)
** Current wind speed in m/s (hover to see current wind gust speed)